Time;durP1;ratioP1;P1;durP2;ratioP2;P2;SDS_P1;SDS_P2;PMS_P1;PMS_P2;Temp;Humidity;BMP_temperature;BMP_pressure;BME280_temperature;BME280_humidity;BME280_pressure;Samples;Min_cycle;Max_cycle;Signal;HPM_P1;HPM_P2
2023/09/30 00:00:20;;;;;;;21.90;19.20;;;;;;;12.41;100.00;99276.23;109689;1250;59180;-68
2023/09/30 00:03:06;;;;;;;23.50;20.80;;;;;;;12.36;100.00;99274.31;109661;1250;62913;-68
2023/09/30 00:05:32;;;;;;;25.60;20.80;;;;;;;12.33;100.00;99275.81;109671;1250;59232;-68
2023/09/30 00:07:59;;;;;;;24.30;21.70;;;;;;;12.30;100.00;99274.86;109448;1257;59097;-68
2023/09/30 00:10:25;;;;;;;25.00;22.30;;;;;;;12.30;100.00;99273.80;109677;1250;59106;-68
2023/09/30 00:12:52;;;;;;;24.10;21.70;;;;;;;12.30;100.00;99271.86;109430;1250;58980;-69
2023/09/30 00:15:18;;;;;;;24.60;22.00;;;;;;;12.30;100.00;99269.55;109617;1250;59563;-69
2023/09/30 00:17:45;;;;;;;23.30;20.70;;;;;;;12.30;100.00;99271.54;109641;1250;58971;-69
2023/09/30 00:20:11;;;;;;;23.50;21.10;;;;;;;12.28;100.00;99270.40;109671;1250;59065;-69
2023/09/30 00:22:37;;;;;;;23.90;21.00;;;;;;;12.25;100.00;99268.63;109696;1250;58914;-69
2023/09/30 00:25:04;;;;;;;23.20;21.00;;;;;;;12.23;100.00;99269.33;109661;1250;59229;-69
2023/09/30 00:27:31;;;;;;;23.70;20.30;;;;;;;12.22;100.00;99265.52;109528;1250;64234;-69
2023/09/30 00:29:57;;;;;;;22.00;19.70;;;;;;;12.20;100.00;99266.53;109639;1250;59067;-69
2023/09/30 00:32:24;;;;;;;22.40;20.10;;;;;;;12.17;100.00;99265.65;109531;1250;58956;-69
2023/09/30 00:34:52;;;;;;;22.90;19.90;;;;;;;12.15;100.00;99264.02;109682;1250;59257;-69
2023/09/30 00:37:18;;;;;;;20.60;18.40;;;;;;;12.12;100.00;99261.76;109665;1250;60166;-69
2023/09/30 00:39:45;;;;;;;21.40;19.20;;;;;;;12.08;100.00;99258.40;109687;1250;58952;-69
2023/09/30 00:42:11;;;;;;;21.00;19.00;;;;;;;12.05;100.00;99254.39;109650;1250;58998;-69
2023/09/30 00:44:37;;;;;;;22.70;20.30;;;;;;;12.02;100.00;99254.02;109658;1250;59044;-69
2023/09/30 00:47:04;;;;;;;22.10;19.90;;;;;;;12.00;100.00;99250.40;109686;1250;59029;-69
2023/09/30 00:49:31;;;;;;;20.30;18.20;;;;;;;12.00;100.00;99252.60;109681;1250;59028;-69
2023/09/30 00:51:58;;;;;;;20.30;18.30;;;;;;;11.98;100.00;99251.83;109659;1250;65289;-69
2023/09/30 00:54:26;;;;;;;20.30;18.40;;;;;;;11.95;100.00;99247.41;109663;1251;59004;-69
2023/09/30 00:56:57;;;;;;;20.90;18.90;;;;;;;11.90;100.00;99243.82;109694;1250;58956;-69
2023/09/30 00:59:26;;;;;;;19.40;17.40;;;;;;;11.87;100.00;99244.02;109627;1250;65727;-69
2023/09/30 01:01:54;;;;;;;20.20;18.30;;;;;;;11.85;100.00;99244.33;109717;1250;60167;-69
2023/09/30 01:04:21;;;;;;;23.20;20.70;;;;;;;11.84;100.00;99247.04;109640;1250;64143;-69
2023/09/30 01:06:47;;;;;;;21.50;19.30;;;;;;;11.84;100.00;99246.12;109645;1250;59008;-69
2023/09/30 01:09:14;;;;;;;23.70;21.10;;;;;;;11.85;100.00;99244.30;109685;1250;58997;-69
2023/09/30 01:11:40;;;;;;;23.90;21.40;;;;;;;11.86;100.00;99244.95;109661;1250;64500;-69
2023/09/30 01:14:38;;;;;;;22.80;20.30;;;;;;;11.86;100.00;99244.79;109686;1250;60030;-69
2023/09/30 01:17:08;;;;;;;24.50;22.00;;;;;;;11.85;100.00;99242.17;109663;1250;64042;-69
2023/09/30 01:19:35;;;;;;;25.50;22.80;;;;;;;11.87;100.00;99245.64;109668;1251;58936;-69
2023/09/30 01:22:05;;;;;;;28.10;22.70;;;;;;;11.89;100.00;99245.33;109652;1250;58979;-69
2023/09/30 01:24:42;;;;;;;25.50;22.80;;;;;;;11.91;100.00;99243.23;109612;1251;66043;-69
2023/09/30 01:27:09;;;;;;;26.10;23.30;;;;;;;11.92;100.00;99244.21;109666;1250;59335;-69
2023/09/30 01:29:38;;;;;;;27.20;24.30;;;;;;;11.94;100.00;99239.79;109668;1250;64198;-69
2023/09/30 01:32:09;;;;;;;24.00;21.50;;;;;;;11.97;100.00;99236.38;109628;1251;59071;-69
2023/09/30 01:34:36;;;;;;;25.00;22.20;;;;;;;12.00;100.00;99241.52;109670;1250;59006;-69
2023/09/30 01:37:02;;;;;;;28.40;25.10;;;;;;;12.03;100.00;99242.00;109656;1250;67330;-69
2023/09/30 01:39:30;;;;;;;29.50;26.50;;;;;;;12.06;100.00;99240.73;109613;1251;60162;-69
2023/09/30 01:41:56;;;;;;;25.70;23.10;;;;;;;12.09;100.00;99242.84;109640;1254;63853;-69
2023/09/30 01:44:23;;;;;;;28.10;25.20;;;;;;;12.12;100.00;99240.16;109627;1250;59420;-69
2023/09/30 01:46:49;;;;;;;29.00;26.10;;;;;;;12.15;100.00;99243.16;109653;1254;59000;-69
2023/09/30 01:49:17;;;;;;;31.80;26.00;;;;;;;12.17;100.00;99242.81;109673;1250;59379;-69
2023/09/30 01:51:44;;;;;;;28.00;25.00;;;;;;;12.19;100.00;99241.24;109671;1250;58970;-69
2023/09/30 01:54:10;;;;;;;26.80;24.10;;;;;;;12.22;100.00;99241.22;109600;1251;64092;-69
2023/09/30 01:56:37;;;;;;;27.70;23.90;;;;;;;12.26;100.00;99241.17;109665;1250;59029;-69
2023/09/30 01:59:03;;;;;;;26.20;23.50;;;;;;;12.28;100.00;99243.33;109589;1251;59023;-69
2023/09/30 02:01:30;;;;;;;28.60;25.80;;;;;;;12.29;100.00;99243.23;109634;1250;66044;-69
2023/09/30 02:03:57;;;;;;;27.70;24.80;;;;;;;12.31;100.00;99242.23;109689;1250;59019;-69
2023/09/30 02:06:23;;;;;;;28.40;25.10;;;;;;;12.33;100.00;99241.19;109632;1250;62996;-68
2023/09/30 02:08:50;;;;;;;26.60;24.00;;;;;;;12.35;100.00;99237.34;109623;1251;58917;-68
2023/09/30 02:11:17;;;;;;;27.70;24.30;;;;;;;12.36;100.00;99237.81;109705;1250;59306;-68
2023/09/30 02:13:44;;;;;;;25.40;22.90;;;;;;;12.36;100.00;99235.85;109650;1250;66311;-68
2023/09/30 02:16:12;;;;;;;25.50;23.00;;;;;;;12.37;100.00;99235.61;109687;1251;58970;-68
2023/09/30 02:18:40;;;;;;;26.70;23.60;;;;;;;12.37;100.00;99237.55;109607;1250;64159;-68
2023/09/30 02:21:08;;;;;;;28.20;23.90;;;;;;;12.37;100.00;99236.66;109668;1250;58933;-68
2023/09/30 02:23:35;;;;;;;27.50;24.50;;;;;;;12.38;100.00;99234.29;109497;1251;59063;-68
2023/09/30 02:26:03;;;;;;;26.50;23.80;;;;;;;12.39;100.00;99232.26;109684;1251;66278;-68
2023/09/30 02:28:32;;;;;;;26.70;23.90;;;;;;;12.39;100.00;99227.59;109665;1254;60146;-68
2023/09/30 02:31:00;;;;;;;26.60;23.70;;;;;;;12.38;100.00;99227.15;109617;1251;63200;-68
2023/09/30 02:33:27;;;;;;;25.90;23.20;;;;;;;12.37;100.00;99222.61;109567;1251;59047;-68
2023/09/30 02:35:54;;;;;;;25.40;22.60;;;;;;;12.33;100.00;99225.33;109647;1251;59020;-68
2023/09/30 02:38:20;;;;;;;24.70;22.30;;;;;;;12.30;100.00;99226.08;109660;1251;66066;-68
2023/09/30 02:40:48;;;;;;;24.20;21.90;;;;;;;12.29;100.00;99228.29;109633;1250;58974;-68
2023/09/30 02:43:16;;;;;;;25.60;22.90;;;;;;;12.27;100.00;99223.77;109620;1251;64101;-68
2023/09/30 02:45:43;;;;;;;25.70;23.20;;;;;;;12.28;100.00;99222.81;109644;1251;58989;-69
2023/09/30 02:48:10;;;;;;;30.30;26.60;;;;;;;12.29;100.00;99221.71;109688;1250;58967;-68
2023/09/30 02:50:36;;;;;;;29.50;26.30;;;;;;;12.31;100.00;99226.38;109627;1251;59270;-68
2023/09/30 02:53:04;;;;;;;30.70;27.50;;;;;;;12.33;100.00;99225.91;109676;1251;59260;-68
2023/09/30 02:55:30;;;;;;;31.30;26.90;;;;;;;12.34;100.00;99226.14;109661;1250;64060;-68
2023/09/30 02:57:58;;;;;;;29.60;26.60;;;;;;;12.37;100.00;99223.96;109634;1251;58968;-68
2023/09/30 03:00:26;;;;;;;30.90;27.40;;;;;;;12.40;100.00;99228.76;109660;1251;59021;-68
2023/09/30 03:02:53;;;;;;;30.40;27.20;;;;;;;12.44;100.00;99224.93;109665;1251;64592;-68
2023/09/30 03:05:20;;;;;;;31.10;27.90;;;;;;;12.48;100.00;99224.63;109654;1251;59033;-68
2023/09/30 03:07:47;;;;;;;29.00;26.00;;;;;;;12.54;100.00;99223.17;109669;1251;64121;-68
2023/09/30 03:10:19;;;;;;;29.20;26.10;;;;;;;12.58;100.00;99222.90;109647;1251;59062;-68
2023/09/30 03:12:47;;;;;;;27.40;24.70;;;;;;;12.61;100.00;99218.59;109612;1250;58949;-68
2023/09/30 03:15:14;;;;;;;28.40;25.50;;;;;;;12.63;100.00;99219.63;109649;1251;66110;-68
2023/09/30 03:17:41;;;;;;;27.60;24.90;;;;;;;12.66;100.00;99216.77;109709;1250;60334;-68
2023/09/30 03:20:12;;;;;;;27.20;24.60;;;;;;;12.68;100.00;99217.68;109664;1250;73826;-68
2023/09/30 03:22:40;;;;;;;28.20;25.20;;;;;;;12.68;100.00;99219.63;109599;1250;59186;-68
2023/09/30 03:25:08;;;;;;;28.20;25.40;;;;;;;12.69;100.00;99212.78;109646;1251;58969;-68
2023/09/30 03:27:36;;;;;;;27.30;24.50;;;;;;;12.71;100.00;99211.04;109430;1250;64891;-68
2023/09/30 03:30:05;;;;;;;28.50;25.40;;;;;;;12.71;100.00;99216.93;109694;1251;60261;-68
2023/09/30 03:32:33;;;;;;;28.50;25.40;;;;;;;12.69;100.00;99219.89;109637;1250;63579;-68
2023/09/30 03:35:00;;;;;;;29.30;26.20;;;;;;;12.70;100.00;99221.45;109629;1251;59033;-68
2023/09/30 03:37:28;;;;;;;29.00;26.20;;;;;;;12.74;100.00;99224.05;109595;1251;58920;-68
2023/09/30 03:39:55;;;;;;;30.30;26.10;;;;;;;12.77;100.00;99225.23;109667;1250;66038;-68
2023/09/30 03:42:21;;;;;;;28.80;25.20;;;;;;;12.81;100.00;99225.66;109616;1251;69689;-68
2023/09/30 03:44:51;;;;;;;29.10;25.90;;;;;;;12.85;100.00;99225.41;109622;1251;62490;-68
2023/09/30 03:47:18;;;;;;;30.00;27.00;;;;;;;12.87;100.00;99222.52;109654;1250;58949;-68
2023/09/30 03:49:45;;;;;;;29.00;26.10;;;;;;;12.91;100.00;99223.11;109696;1251;58977;-68
2023/09/30 03:52:11;;;;;;;28.50;24.90;;;;;;;12.95;100.00;99228.38;109597;1251;59350;-68
2023/09/30 03:54:38;;;;;;;28.10;25.30;;;;;;;12.98;100.00;99232.62;109654;1250;58984;-68
2023/09/30 03:57:05;;;;;;;29.90;26.60;;;;;;;12.99;100.00;99227.04;109688;1251;62882;-68
2023/09/30 03:59:31;;;;;;;30.50;27.40;;;;;;;13.01;100.00;99227.09;109625;1251;58950;-68
2023/09/30 04:01:57;;;;;;;31.30;28.20;;;;;;;13.04;100.00;99224.90;109651;1251;58949;-68
2023/09/30 04:04:25;;;;;;;33.90;30.10;;;;;;;13.07;100.00;99227.48;109641;1251;59128;-68
2023/09/30 04:06:51;;;;;;;31.90;28.90;;;;;;;13.12;100.00;99225.02;109631;1250;70016;-68
2023/09/30 04:09:19;;;;;;;33.20;29.70;;;;;;;13.15;100.00;99233.11;109654;1251;58940;-68
2023/09/30 04:11:46;;;;;;;35.10;31.50;;;;;;;13.18;100.00;99230.58;109630;1251;59031;-69
2023/09/30 04:14:12;;;;;;;33.60;30.10;;;;;;;13.21;100.00;99237.87;109707;1251;58905;-69
2023/09/30 04:16:39;;;;;;;29.70;26.70;;;;;;;13.24;100.00;99238.78;109637;1250;59529;-68
2023/09/30 04:19:07;;;;;;;32.60;29.20;;;;;;;13.25;100.00;99237.40;109682;1251;59320;-68
2023/09/30 04:21:34;;;;;;;34.90;31.30;;;;;;;13.28;100.00;99237.09;109614;1251;63687;-68
2023/09/30 04:24:01;;;;;;;29.00;26.20;;;;;;;13.31;100.00;99241.13;109678;1250;59331;-68
2023/09/30 04:26:27;;;;;;;28.50;25.60;;;;;;;13.33;100.00;99245.41;109683;1251;58928;-68
2023/09/30 04:28:54;;;;;;;28.20;25.40;;;;;;;13.34;100.00;99246.95;109651;1250;65775;-68
2023/09/30 04:31:23;;;;;;;29.70;26.40;;;;;;;13.35;100.00;99250.44;109669;1250;60124;-68
2023/09/30 04:33:53;;;;;;;31.90;27.60;;;;;;;13.36;100.00;99256.05;109629;1250;62542;-68
2023/09/30 04:36:20;;;;;;;32.10;29.00;;;;;;;13.37;100.00;99253.30;109703;1250;59271;-68
2023/09/30 04:38:47;;;;;;;29.20;26.00;;;;;;;13.40;100.00;99255.79;109771;1249;58919;-68
2023/09/30 04:41:15;;;;;;;29.40;26.40;;;;;;;13.43;100.00;99260.39;109774;1251;64886;-69
2023/09/30 04:43:43;;;;;;;28.80;25.90;;;;;;;13.46;100.00;99268.74;109787;1250;61286;-68
2023/09/30 04:46:09;;;;;;;30.30;27.10;;;;;;;13.48;100.00;99271.60;109763;1250;71764;-68
2023/09/30 04:48:36;;;;;;;30.60;27.50;;;;;;;13.51;100.00;99273.37;109738;1249;58980;-69
2023/09/30 04:51:06;;;;;;;31.20;28.00;;;;;;;13.54;100.00;99266.03;109770;1250;58963;-68
2023/09/30 04:53:33;;;;;;;;;;;;;;;13.57;100.00;99272.36;109753;1251;64934;-69
2023/09/30 04:56:01;;;;;;;30.30;27.30;;;;;;;13.60;100.00;99270.21;109788;1249;58991;-68
2023/09/30 04:58:29;;;;;;;31.10;28.10;;;;;;;13.61;100.00;99263.12;109584;1250;72955;-68
2023/09/30 05:00:56;;;;;;;30.20;26.90;;;;;;;13.64;100.00;99269.92;109743;1249;58990;-68
2023/09/30 05:03:24;;;;;;;28.00;25.10;;;;;;;13.66;100.00;99269.23;109775;1249;58961;-68
2023/09/30 05:05:58;;;;;;;29.80;26.90;;;;;;;13.67;100.00;99270.58;109728;1250;65716;-68
2023/09/30 05:08:24;;;;;;;31.10;28.00;;;;;;;13.68;100.00;99273.52;109801;1250;60161;-68
2023/09/30 05:10:55;;;;;;;31.20;27.10;;;;;;;13.71;100.00;99276.38;109772;1250;63906;-68
2023/09/30 05:13:23;;;;;;;31.10;27.90;;;;;;;13.71;100.00;99276.30;109741;1249;58989;-68
2023/09/30 05:15:51;;;;;;;33.80;30.30;;;;;;;13.73;100.00;99282.76;109580;1249;58879;-68
2023/09/30 05:18:18;;;;;;;33.90;30.20;;;;;;;13.74;100.00;99285.54;109563;1251;64798;-68
2023/09/30 05:20:44;;;;;;;35.20;31.00;;;;;;;13.76;100.00;99286.27;109794;1249;61295;-68
2023/09/30 05:23:12;;;;;;;33.90;30.40;;;;;;;13.79;100.00;99290.70;109743;1249;64144;-67
2023/09/30 05:25:39;;;;;;;33.10;29.60;;;;;;;13.82;100.00;99289.73;109389;1250;59105;-68
2023/09/30 05:28:06;;;;;;;32.70;29.30;;;;;;;13.86;100.00;99292.16;109564;1249;59063;-68
2023/09/30 05:30:33;;;;;;;32.00;28.80;;;;;;;13.89;100.00;99295.19;109748;1249;64813;-68
2023/09/30 05:33:00;;;;;;;33.10;29.70;;;;;;;13.91;100.00;99299.27;109802;1250;60464;-68
2023/09/30 05:35:28;;;;;;;34.30;30.60;;;;;;;13.95;100.00;99302.94;109763;1250;63809;-67
2023/09/30 05:37:54;;;;;;;35.10;31.10;;;;;;;13.98;100.00;99308.73;109712;1250;59209;-67
2023/09/30 05:40:30;;;;;;;32.70;29.30;;;;;;;14.02;100.00;99303.09;109791;1249;59019;-68
2023/09/30 05:43:00;;;;;;;34.20;30.50;;;;;;;14.07;100.00;99305.98;109789;1250;66016;-68
2023/09/30 05:45:28;;;;;;;33.60;30.10;;;;;;;14.11;100.00;99310.77;109764;1250;60143;-68
2023/09/30 05:47:56;;;;;;;33.90;30.40;;;;;;;14.15;100.00;99314.21;109766;1250;62831;-69
2023/09/30 05:50:26;;;;;;;32.30;28.70;;;;;;;14.20;100.00;99313.89;109750;1250;58968;-68
2023/09/30 05:52:55;;;;;;;31.90;28.50;;;;;;;14.24;100.00;99316.73;109762;1249;59068;-68
2023/09/30 05:55:25;;;;;;;32.10;29.00;;;;;;;14.31;100.00;99318.22;109778;1250;66488;-68
2023/09/30 05:57:54;;;;;;;30.20;27.00;;;;;;;14.36;100.00;99322.08;109787;1249;60169;-69
2023/09/30 06:00:22;;;;;;;29.80;26.70;;;;;;;14.42;100.00;99320.25;109787;1249;65197;-68
2023/09/30 06:02:51;;;;;;;29.10;26.40;;;;;;;14.46;100.00;99323.44;109562;1250;59167;-69
2023/09/30 06:05:18;;;;;;;29.30;26.30;;;;;;;14.51;100.00;99325.96;109807;1249;59037;-69
2023/09/30 06:07:46;;;;;;;28.20;25.50;;;;;;;14.55;100.00;99328.92;109786;1249;64713;-69
2023/09/30 06:10:15;;;;;;;28.70;25.80;;;;;;;14.59;100.00;99329.67;109779;1249;58988;-69
2023/09/30 06:12:42;;;;;;;27.90;25.10;;;;;;;14.62;100.00;99335.52;109780;1249;65168;-69
2023/09/30 06:15:10;;;;;;;27.50;24.40;;;;;;;14.65;100.00;99341.20;109769;1249;58933;-68
2023/09/30 06:17:36;;;;;;;26.30;23.60;;;;;;;14.66;100.00;99346.77;109838;1249;59011;-69
2023/09/30 06:20:16;;;;;;;27.80;24.20;;;;;;;14.68;100.00;99356.25;109783;1249;58970;-69
2023/09/30 06:22:45;;;;;;;27.00;24.40;;;;;;;14.71;100.00;99357.87;109788;1249;59864;-69
2023/09/30 06:25:16;;;;;;;26.60;23.80;;;;;;;14.73;100.00;99358.58;109719;1249;63771;-69
2023/09/30 06:27:46;;;;;;;28.50;25.60;;;;;;;14.77;100.00;99356.69;109742;1249;58981;-69
2023/09/30 06:30:15;;;;;;;27.60;24.70;;;;;;;14.81;100.00;99360.09;109755;1249;59031;-69
2023/09/30 06:32:43;;;;;;;27.80;24.70;;;;;;;14.86;100.00;99361.88;109533;1250;64827;-68
2023/09/30 06:35:12;;;;;;;28.00;25.40;;;;;;;14.93;100.00;99364.16;109484;1249;59114;-69
2023/09/30 06:37:42;;;;;;;27.20;24.50;;;;;;;15.04;100.00;99366.15;109754;1250;64108;-68
2023/09/30 06:40:11;;;;;;;25.80;23.40;;;;;;;15.15;100.00;99370.83;109744;1249;58985;-68
2023/09/30 06:42:39;;;;;;;25.10;22.50;;;;;;;15.26;100.00;99377.00;109797;1249;58962;-69
2023/09/30 06:45:07;;;;;;;26.00;22.40;;;;;;;15.35;100.00;99380.34;109421;1250;196163;-69
2023/09/30 06:47:35;;;;;;;26.20;22.00;;;;;;;15.44;100.00;99383.59;109480;1249;59860;-68
2023/09/30 06:50:07;;;;;;;25.10;22.20;;;;;;;15.53;100.00;99384.99;109576;1250;62963;-69
2023/09/30 06:52:41;;;;;;;22.90;20.70;;;;;;;15.63;100.00;99383.30;109725;1249;59060;-69
2023/09/30 06:55:08;;;;;;;23.20;20.90;;;;;;;15.71;100.00;99384.94;109790;1249;58972;-69
2023/09/30 06:57:36;;;;;;;23.60;21.20;;;;;;;15.81;100.00;99386.71;109729;1250;66086;-69
2023/09/30 07:00:11;;;;;;;20.60;18.60;;;;;;;15.90;100.00;99382.13;109807;1249;59012;-70
2023/09/30 07:02:40;;;;;;;22.50;20.40;;;;;;;16.01;100.00;99387.84;109565;1250;64228;-69
2023/09/30 07:05:10;;;;;;;21.40;19.20;;;;;;;16.12;100.00;99391.10;109781;1249;58989;-69
2023/09/30 07:07:39;;;;;;;21.50;19.40;;;;;;;16.18;100.00;99392.69;109796;1249;59008;-69
2023/09/30 07:10:06;;;;;;;21.00;19.00;;;;;;;16.22;100.00;99391.81;109758;1250;66028;-69
2023/09/30 07:12:35;;;;;;;21.90;19.80;;;;;;;16.23;100.00;99393.70;109439;1250;59588;-69
2023/09/30 07:15:02;;;;;;;22.10;19.80;;;;;;;16.22;100.00;99397.05;109742;1249;62886;-69
2023/09/30 07:17:29;;;;;;;21.60;19.40;;;;;;;16.21;100.00;99403.57;109783;1249;59016;-69
2023/09/30 07:19:56;;;;;;;21.60;19.30;;;;;;;16.23;100.00;99408.27;109774;1249;58905;-69
2023/09/30 07:22:23;;;;;;;21.10;19.00;;;;;;;16.28;100.00;99407.70;109808;1249;66062;-69
2023/09/30 07:24:49;;;;;;;21.00;18.80;;;;;;;16.34;100.00;99411.44;109718;1249;58968;-69
2023/09/30 07:27:16;;;;;;;20.10;18.10;;;;;;;16.40;100.00;99411.16;109791;1249;64104;-69
2023/09/30 07:29:44;;;;;;;20.80;18.70;;;;;;;16.42;100.00;99411.16;109745;1249;58966;-69
2023/09/30 07:32:10;;;;;;;20.10;18.20;;;;;;;16.46;100.00;99418.39;109558;1249;59004;-69
2023/09/30 07:34:37;;;;;;;19.50;17.50;;;;;;;16.46;100.00;99421.36;109778;1250;58972;-69
2023/09/30 07:37:03;;;;;;;21.30;18.30;;;;;;;16.42;100.00;99420.45;109791;1249;58982;-69
2023/09/30 07:39:30;;;;;;;18.80;17.00;;;;;;;16.40;100.00;99423.33;109785;1249;59039;-69
2023/09/30 07:41:57;;;;;;;19.60;17.80;;;;;;;16.38;100.00;99427.45;109745;1250;59221;-69
2023/09/30 07:44:23;;;;;;;19.00;17.10;;;;;;;16.35;100.00;99429.69;109779;1249;59034;-68
2023/09/30 07:46:50;;;;;;;17.50;15.80;;;;;;;16.32;100.00;99427.98;109815;1249;64766;-69
2023/09/30 07:49:16;;;;;;;17.60;15.60;;;;;;;16.30;100.00;99428.13;109757;1250;58953;-69
2023/09/30 07:51:43;;;;;;;17.10;15.20;;;;;;;16.28;100.00;99434.61;109758;1249;58985;-69
2023/09/30 07:54:10;;;;;;;16.00;14.10;;;;;;;16.27;100.00;99433.59;109796;1249;58967;-69
2023/09/30 07:56:36;;;;;;;15.40;13.80;;;;;;;16.28;100.00;99433.70;109785;1249;58994;-69
2023/09/30 07:59:03;;;;;;;16.00;14.40;;;;;;;16.29;100.00;99435.56;109779;1249;59064;-69
2023/09/30 08:01:30;;;;;;;16.80;15.00;;;;;;;16.30;100.00;99439.81;109862;1249;59415;-69
2023/09/30 08:03:56;;;;;;;16.20;14.80;;;;;;;16.30;100.00;99440.00;109805;1250;64026;-69
2023/09/30 08:06:23;;;;;;;15.50;14.00;;;;;;;16.29;100.00;99443.30;109752;1249;58916;-69
2023/09/30 08:08:49;;;;;;;16.10;14.50;;;;;;;16.27;100.00;99445.23;109437;1250;59250;-69
2023/09/30 08:11:20;;;;;;;16.50;14.20;;;;;;;16.25;100.00;99449.14;109431;1249;59109;-69
2023/09/30 08:13:47;;;;;;;16.10;14.20;;;;;;;16.24;100.00;99451.39;109827;1250;59008;-70
2023/09/30 08:16:14;;;;;;;15.80;13.80;;;;;;;16.24;100.00;99455.89;109449;1250;64074;-69
2023/09/30 08:18:40;;;;;;;16.10;14.40;;;;;;;16.23;100.00;99452.88;109467;1249;59007;-68
2023/09/30 08:21:13;;;;;;;16.20;13.70;;;;;;;16.24;100.00;99452.27;109782;1249;59070;-69
2023/09/30 08:23:40;;;;;;;18.10;13.90;;;;;;;16.28;100.00;99455.92;109824;1249;66111;-69
2023/09/30 08:26:06;;;;;;;15.40;13.80;;;;;;;16.28;100.00;99456.09;109592;1249;59364;-69
2023/09/30 08:28:33;;;;;;;16.10;14.40;;;;;;;16.29;100.00;99454.96;109782;1249;58983;-69
2023/09/30 08:31:02;;;;;;;15.80;14.20;;;;;;;16.29;100.00;99456.16;109732;1249;59283;-69
2023/09/30 08:33:30;;;;;;;16.10;14.40;;;;;;;16.29;100.00;99457.96;109789;1249;59166;-68
2023/09/30 08:36:07;;;;;;;16.30;14.70;;;;;;;16.30;100.00;99458.58;109760;1249;66028;-67
2023/09/30 08:38:37;;;;;;;17.20;15.60;;;;;;;16.32;100.00;99456.52;109810;1249;61141;-68
2023/09/30 08:41:04;;;;;;;16.80;15.10;;;;;;;16.30;100.00;99459.33;109756;1250;64123;-68
2023/09/30 08:43:38;;;;;;;16.50;14.90;;;;;;;16.29;100.00;99461.02;109735;1249;58912;-68
2023/09/30 08:46:06;;;;;;;16.40;14.90;;;;;;;16.26;100.00;99460.21;109820;1249;58966;-69
2023/09/30 08:48:33;;;;;;;16.00;14.40;;;;;;;16.23;100.00;99458.44;109779;1249;66356;-69
2023/09/30 08:51:02;;;;;;;17.10;15.40;;;;;;;16.24;100.00;99457.51;109756;1249;60318;-68
2023/09/30 08:53:29;;;;;;;17.00;15.20;;;;;;;16.27;100.00;99458.52;109772;1249;63878;-69
2023/09/30 08:55:58;;;;;;;18.00;16.20;;;;;;;16.30;100.00;99462.56;109556;1249;59062;-69
2023/09/30 08:58:32;;;;;;;16.30;14.90;;;;;;;16.29;100.00;99460.88;109623;1249;58979;-69
2023/09/30 09:00:58;;;;;;;18.00;16.30;;;;;;;16.29;100.00;99456.04;109744;1249;67214;-69
2023/09/30 09:03:27;;;;;;;17.70;16.00;;;;;;;16.28;100.00;99461.50;109740;1249;61255;-69
2023/09/30 09:05:56;;;;;;;19.30;17.30;;;;;;;16.29;100.00;99457.65;109589;1249;64311;-68
2023/09/30 09:08:26;;;;;;;19.20;17.30;;;;;;;16.34;100.00;99456.52;109784;1249;58998;-69
2023/09/30 09:10:57;;;;;;;19.90;18.00;;;;;;;16.38;100.00;99455.23;109637;1249;61123;-68
2023/09/30 09:13:25;;;;;;;19.60;17.60;;;;;;;16.41;100.00;99456.27;109754;1249;66722;-69
2023/09/30 09:16:08;;;;;;;19.10;17.20;;;;;;;16.41;100.00;99459.84;109498;1249;59030;-68
2023/09/30 09:18:36;;;;;;;19.70;17.80;;;;;;;16.40;100.00;99457.28;109579;1252;62424;-69
2023/09/30 09:21:13;;;;;;;19.20;17.20;;;;;;;16.38;100.00;99459.92;109756;1249;58969;-69
2023/09/30 09:23:44;;;;;;;19.10;17.20;;;;;;;16.36;100.00;99461.00;109744;1249;58961;-69
2023/09/30 09:26:22;;;;;;;20.10;18.00;;;;;;;16.32;100.00;99462.02;109776;1249;66141;-69
2023/09/30 09:28:49;;;;;;;20.20;18.10;;;;;;;16.29;100.00;99466.02;109816;1249;60205;-69
2023/09/30 09:31:21;;;;;;;19.50;17.40;;;;;;;16.27;100.00;99465.68;109754;1249;63755;-69
2023/09/30 09:33:49;;;;;;;19.10;17.00;;;;;;;16.25;100.00;99465.83;109814;1249;58948;-69
2023/09/30 09:36:16;;;;;;;19.50;17.60;;;;;;;16.21;100.00;99468.45;109786;1249;58884;-69
2023/09/30 09:38:44;;;;;;;18.80;16.80;;;;;;;16.17;100.00;99463.77;109787;1249;66870;-69
2023/09/30 09:41:11;;;;;;;18.90;17.00;;;;;;;16.15;100.00;99468.23;109751;1249;59414;-68
2023/09/30 09:43:40;;;;;;;20.40;18.50;;;;;;;16.13;100.00;99473.80;109716;1249;64059;-68
2023/09/30 09:46:08;;;;;;;20.50;18.50;;;;;;;16.08;100.00;99479.40;109385;1255;59349;-68
2023/09/30 09:48:38;;;;;;;19.90;17.60;;;;;;;16.04;100.00;99478.52;109401;1249;59147;-68
2023/09/30 09:51:07;;;;;;;21.20;19.20;;;;;;;16.01;100.00;99477.33;109776;1249;66052;-68
2023/09/30 09:53:36;;;;;;;21.20;18.90;;;;;;;15.99;100.00;99478.39;109801;1249;58964;-68
2023/09/30 09:56:04;;;;;;;19.50;17.50;;;;;;;16.00;100.00;99483.82;109787;1249;64010;-68
2023/09/30 09:58:34;;;;;;;19.10;17.30;;;;;;;16.00;100.00;99484.55;109761;1249;58953;-68
2023/09/30 10:01:01;;;;;;;19.20;17.30;;;;;;;15.99;100.00;99481.38;109814;1249;58953;-67
2023/09/30 10:03:28;;;;;;;18.50;16.90;;;;;;;15.99;100.00;99486.41;109802;1249;66083;-67
2023/09/30 10:05:54;;;;;;;18.80;17.00;;;;;;;16.00;100.00;99485.47;109809;1249;60074;-68
2023/09/30 10:08:32;;;;;;;19.10;17.20;;;;;;;16.02;100.00;99491.05;109742;1249;65030;-68
2023/09/30 10:10:59;;;;;;;17.90;16.20;;;;;;;16.06;100.00;99490.66;109544;1250;59406;-69
2023/09/30 10:14:00;;;;;;;18.70;17.10;;;;;;;16.12;100.00;99488.06;109455;1250;59051;-69
2023/09/30 10:16:36;;;;;;;18.60;16.90;;;;;;;16.17;100.00;99491.80;109749;1249;64833;-69
2023/09/30 10:19:22;;;;;;;18.00;16.30;;;;;;;16.21;100.00;99487.83;109792;1249;60559;-69
2023/09/30 10:22:19;;;;;;;18.40;16.70;;;;;;;16.24;100.00;99487.96;109729;1249;65213;-69
2023/09/30 10:24:53;;;;;;;18.80;16.90;;;;;;;16.25;100.00;99485.73;109723;1250;58934;-69
2023/09/30 10:27:34;;;;;;;18.20;16.70;;;;;;;16.28;100.00;99486.20;109814;1250;59020;-69
2023/09/30 10:30:10;;;;;;;17.80;16.20;;;;;;;16.30;100.00;99488.19;109782;1249;65725;-69
2023/09/30 10:32:52;;;;;;;17.00;15.50;;;;;;;16.32;100.00;99488.52;109818;1249;60383;-69
2023/09/30 10:35:20;;;;;;;18.00;16.30;;;;;;;16.37;100.00;99487.45;109806;1249;64117;-69
2023/09/30 10:37:48;;;;;;;17.00;15.50;;;;;;;16.40;100.00;99485.71;109511;1249;58971;-69
2023/09/30 10:40:27;;;;;;;16.80;15.40;;;;;;;16.44;100.00;99488.98;109757;1249;58973;-69
2023/09/30 10:42:57;;;;;;;16.20;14.70;;;;;;;16.50;100.00;99492.98;109733;1249;75724;-69
2023/09/30 10:45:43;;;;;;;17.70;15.90;;;;;;;16.56;100.00;99492.48;109766;1249;59993;-69
2023/09/30 10:48:24;;;;;;;17.90;16.30;;;;;;;16.64;100.00;99489.98;109742;1249;62830;-69
2023/09/30 10:50:56;;;;;;;16.40;15.00;;;;;;;16.70;100.00;99490.21;109689;1249;58999;-69
2023/09/30 10:53:22;;;;;;;17.50;15.90;;;;;;;16.73;100.00;99491.45;109794;1250;59020;-69
2023/09/30 10:55:57;;;;;;;17.70;16.10;;;;;;;16.78;100.00;99486.91;109506;1250;65987;-69
2023/09/30 10:58:47;;;;;;;17.40;15.90;;;;;;;16.84;100.00;99488.39;109763;1249;60079;-68
2023/09/30 11:01:16;;;;;;;18.60;16.90;;;;;;;16.88;100.00;99488.77;109779;1249;62822;-69
2023/09/30 11:03:42;;;;;;;17.00;15.30;;;;;;;16.90;100.00;99490.56;109756;1249;58996;-69
2023/09/30 11:06:17;;;;;;;17.00;15.60;;;;;;;16.94;100.00;99491.79;109789;1249;58930;-69
2023/09/30 11:08:53;;;;;;;16.60;15.10;;;;;;;17.00;100.00;99488.59;109769;1249;73172;-68